sensor_id;sensor_type;location;lat;lon;timestamp;pressure;altitude;pressure_sealevel;temperature;humidity
59829;BME280;45708;51.848;107.620;2023-04-01T00:02:29;95439.94;;;-0.33;36.50
59829;BME280;45708;51.848;107.620;2023-04-01T00:07:30;95489.56;;;-0.36;35.51
59829;BME280;45708;51.848;107.620;2023-04-01T00:12:31;95350.84;;;-1.26;35.32
59829;BME280;45708;51.848;107.620;2023-04-01T00:17:32;95465.16;;;-0.53;36.03
59829;BME280;45708;51.848;107.620;2023-04-01T00:22:33;95420.59;;;-2.21;36.29
59829;BME280;45708;51.848;107.620;2023-04-01T00:27:37;95510.53;;;-3.16;36.86
59829;BME280;45708;51.848;107.620;2023-04-01T00:32:38;95504.13;;;-3.64;37.91
59829;BME280;45708;51.848;107.620;2023-04-01T00:37:40;95474.00;;;-4.41;38.74
59829;BME280;45708;51.848;107.620;2023-04-01T00:42:41;95522.78;;;-4.60;40.43
59829;BME280;45708;51.848;107.620;2023-04-01T00:47:43;95473.69;;;-5.38;40.62
59829;BME280;45708;51.848;107.620;2023-04-01T00:52:44;95472.47;;;-5.57;41.54
59829;BME280;45708;51.848;107.620;2023-04-01T00:57:46;95451.28;;;-5.49;41.11
59829;BME280;45708;51.848;107.620;2023-04-01T01:02:50;95487.97;;;-4.54;39.73
59829;BME280;45708;51.848;107.620;2023-04-01T01:18:35;95555.66;;;-2.36;37.40
59829;BME280;45708;51.848;107.620;2023-04-01T01:23:56;95568.59;;;-2.06;37.16
59829;BME280;45708;51.848;107.620;2023-04-01T01:29:22;95517.44;;;-1.83;36.99
59829;BME280;45708;51.848;107.620;2023-04-01T01:34:46;95577.19;;;-0.11;34.61
59829;BME280;45708;51.848;107.620;2023-04-01T01:40:04;95491.78;;;-0.51;34.46
59829;BME280;45708;51.848;107.620;2023-04-01T01:45:11;95493.16;;;0.36;32.58
59829;BME280;45708;51.848;107.620;2023-04-01T01:50:15;95600.38;;;1.10;32.57
59829;BME280;45708;51.848;107.620;2023-04-01T01:55:44;95472.38;;;0.53;32.82
59829;BME280;45708;51.848;107.620;2023-04-01T02:01:10;95597.81;;;1.18;32.18
59829;BME280;45708;51.848;107.620;2023-04-01T02:06:17;95453.94;;;0.29;31.29
59829;BME280;45708;51.848;107.620;2023-04-01T02:21:55;95619.75;;;0.98;31.37
59829;BME280;45708;51.848;107.620;2023-04-01T02:26:57;95616.78;;;-1.54;35.48
59829;BME280;45708;51.848;107.620;2023-04-01T02:31:58;95608.66;;;-2.72;35.76
59829;BME280;45708;51.848;107.620;2023-04-01T02:37:00;95603.81;;;-3.19;36.04
59829;BME280;45708;51.848;107.620;2023-04-01T02:42:02;95608.56;;;-3.46;35.50
59829;BME280;45708;51.848;107.620;2023-04-01T02:47:02;95550.66;;;-3.87;36.33
59829;BME280;45708;51.848;107.620;2023-04-01T02:52:04;95582.06;;;-3.71;36.14
59829;BME280;45708;51.848;107.620;2023-04-01T02:57:05;95602.53;;;-3.79;35.94
59829;BME280;45708;51.848;107.620;2023-04-01T03:02:06;95534.50;;;-4.11;36.61
59829;BME280;45708;51.848;107.620;2023-04-01T03:07:07;95549.72;;;-3.75;36.06
59829;BME280;45708;51.848;107.620;2023-04-01T03:12:08;95552.00;;;-3.60;35.80
59829;BME280;45708;51.848;107.620;2023-04-01T03:17:08;95459.31;;;-3.95;36.21
59829;BME280;45708;51.848;107.620;2023-04-01T03:22:12;95593.50;;;-3.30;35.60
59829;BME280;45708;51.848;107.620;2023-04-01T03:27:13;95567.94;;;-3.44;35.89
59829;BME280;45708;51.848;107.620;2023-04-01T03:32:14;95475.25;;;-4.02;36.23
59829;BME280;45708;51.848;107.620;2023-04-01T03:37:15;95567.50;;;-3.60;36.12
59829;BME280;45708;51.848;107.620;2023-04-01T03:42:16;95582.53;;;-3.54;36.04
59829;BME280;45708;51.848;107.620;2023-04-01T03:47:17;95580.69;;;-3.75;35.81
59829;BME280;45708;51.848;107.620;2023-04-01T03:52:18;95580.44;;;-3.72;35.81
59829;BME280;45708;51.848;107.620;2023-04-01T03:57:20;95626.31;;;-3.53;35.59
59829;BME280;45708;51.848;107.620;2023-04-01T04:02:21;95531.25;;;-3.70;35.58
59829;BME280;45708;51.848;107.620;2023-04-01T04:07:22;95600.66;;;-3.33;36.38
59829;BME280;45708;51.848;107.620;2023-04-01T04:12:23;95526.94;;;-3.70;35.29
59829;BME280;45708;51.848;107.620;2023-04-01T04:17:23;95595.94;;;-3.83;35.44
59829;BME280;45708;51.848;107.620;2023-04-01T04:22:24;95470.16;;;-4.46;35.84
59829;BME280;45708;51.848;107.620;2023-04-01T04:27:25;95559.06;;;-3.62;36.16
59829;BME280;45708;51.848;107.620;2023-04-01T04:32:26;95604.97;;;-3.23;36.33
59829;BME280;45708;51.848;107.620;2023-04-01T04:37:27;95611.78;;;-3.22;35.61
59829;BME280;45708;51.848;107.620;2023-04-01T04:42:29;95618.06;;;-3.03;35.71
59829;BME280;45708;51.848;107.620;2023-04-01T04:47:31;95572.75;;;-3.08;35.53
59829;BME280;45708;51.848;107.620;2023-04-01T04:52:32;95593.97;;;-2.51;35.75
59829;BME280;45708;51.848;107.620;2023-04-01T04:57:33;95603.31;;;-2.39;36.04
59829;BME280;45708;51.848;107.620;2023-04-01T05:02:34;95600.94;;;-2.21;35.67
59829;BME280;45708;51.848;107.620;2023-04-01T05:07:34;95611.69;;;-2.47;35.60
59829;BME280;45708;51.848;107.620;2023-04-01T05:12:35;95608.66;;;-2.52;35.72
59829;BME280;45708;51.848;107.620;2023-04-01T05:17:36;95601.16;;;-2.55;35.20
59829;BME280;45708;51.848;107.620;2023-04-01T05:22:37;95618.84;;;-2.60;35.38
59829;BME280;45708;51.848;107.620;2023-04-01T05:27:38;95618.13;;;-2.62;34.90
59829;BME280;45708;51.848;107.620;2023-04-01T05:32:38;95628.59;;;-2.63;35.43
59829;BME280;45708;51.848;107.620;2023-04-01T05:37:39;95593.44;;;-2.87;34.88
59829;BME280;45708;51.848;107.620;2023-04-01T05:42:40;95621.28;;;-2.79;35.26
59829;BME280;45708;51.848;107.620;2023-04-01T05:47:41;95603.63;;;-2.74;35.31
59829;BME280;45708;51.848;107.620;2023-04-01T05:52:42;95596.03;;;-2.45;34.92
59829;BME280;45708;51.848;107.620;2023-04-01T05:57:45;95601.56;;;-2.59;34.67
59829;BME280;45708;51.848;107.620;2023-04-01T06:02:45;95617.00;;;-2.69;34.54
59829;BME280;45708;51.848;107.620;2023-04-01T06:07:46;95607.03;;;-2.53;33.91
59829;BME280;45708;51.848;107.620;2023-04-01T06:12:59;95604.75;;;-2.67;34.02
59829;BME280;45708;51.848;107.620;2023-04-01T06:39:56;95606.94;;;-2.62;32.95
59829;BME280;45708;51.848;107.620;2023-04-01T06:56:00;95613.06;;;-2.42;32.30
59829;BME280;45708;51.848;107.620;2023-04-01T07:01:22;95604.38;;;-2.41;32.33
59829;BME280;45708;51.848;107.620;2023-04-01T07:06:31;95626.00;;;-2.63;32.29
59829;BME280;45708;51.848;107.620;2023-04-01T07:11:35;95619.75;;;-2.61;32.40
59829;BME280;45708;51.848;107.620;2023-04-01T07:16:41;95612.06;;;-2.51;31.82
59829;BME280;45708;51.848;107.620;2023-04-01T07:21:51;95626.81;;;-2.63;31.91
59829;BME280;45708;51.848;107.620;2023-04-01T07:26:55;95630.97;;;-2.92;31.96
59829;BME280;45708;51.848;107.620;2023-04-01T07:32:16;95622.56;;;-2.53;32.18
59829;BME280;45708;51.848;107.620;2023-04-01T08:15:23;95632.38;;;-2.47;32.02
59829;BME280;45708;51.848;107.620;2023-04-01T08:25:32;95630.34;;;-2.22;31.88
59829;BME280;45708;51.848;107.620;2023-04-01T08:30:47;95628.97;;;-2.68;31.74
59829;BME280;45708;51.848;107.620;2023-04-01T08:35:51;95631.44;;;-2.66;31.96
59829;BME280;45708;51.848;107.620;2023-04-01T08:41:00;95633.16;;;-2.56;32.20
59829;BME280;45708;51.848;107.620;2023-04-01T09:18:12;95653.03;;;-3.20;32.80
59829;BME280;45708;51.848;107.620;2023-04-01T09:28:37;95649.38;;;-3.29;32.80
59829;BME280;45708;51.848;107.620;2023-04-01T09:33:55;95661.34;;;-3.28;32.45
59829;BME280;45708;51.848;107.620;2023-04-01T09:44:45;95671.25;;;-3.33;33.05
59829;BME280;45708;51.848;107.620;2023-04-01T10:22:48;95693.94;;;-4.28;33.78
59829;BME280;45708;51.848;107.620;2023-04-01T11:06:34;95748.53;;;-4.93;35.15
59829;BME280;45708;51.848;107.620;2023-04-01T11:17:01;95767.41;;;-5.05;35.17
59829;BME280;45708;51.848;107.620;2023-04-01T11:28:12;95804.13;;;-5.14;35.18
59829;BME280;45708;51.848;107.620;2023-04-01T11:33:36;95806.38;;;-5.22;35.31
59829;BME280;45708;51.848;107.620;2023-04-01T11:39:01;95830.59;;;-5.25;36.37
59829;BME280;45708;51.848;107.620;2023-04-01T12:11:06;95911.66;;;-5.56;37.61
59829;BME280;45708;51.848;107.620;2023-04-01T12:27:05;95938.44;;;-5.58;37.41
59829;BME280;45708;51.848;107.620;2023-04-01T12:48:40;95965.81;;;-5.57;39.03
59829;BME280;45708;51.848;107.620;2023-04-01T13:21:19;96009.53;;;-5.70;39.57
59829;BME280;45708;51.848;107.620;2023-04-01T13:26:50;96016.34;;;-5.83;41.74
59829;BME280;45708;51.848;107.620;2023-04-01T13:42:33;96017.38;;;-5.98;42.12
59829;BME280;45708;51.848;107.620;2023-04-01T13:58:55;96034.06;;;-5.91;41.92
59829;BME280;45708;51.848;107.620;2023-04-01T14:31:31;96035.19;;;-6.09;42.29
59829;BME280;45708;51.848;107.620;2023-04-01T14:52:22;96024.19;;;-6.26;42.83
59829;BME280;45708;51.848;107.620;2023-04-01T14:57:31;96026.03;;;-6.42;45.18
59829;BME280;45708;51.848;107.620;2023-04-01T15:08:07;96018.53;;;-6.45;43.94
59829;BME280;45708;51.848;107.620;2023-04-01T15:18:35;96016.88;;;-6.46;44.37
59829;BME280;45708;51.848;107.620;2023-04-01T15:24:07;96022.66;;;-6.43;45.19
59829;BME280;45708;51.848;107.620;2023-04-01T15:40:02;96030.66;;;-6.76;46.27
59829;BME280;45708;51.848;107.620;2023-04-01T15:55:39;96011.09;;;-6.78;46.70
59829;BME280;45708;51.848;107.620;2023-04-01T16:21:53;96042.28;;;-6.84;47.78
59829;BME280;45708;51.848;107.620;2023-04-01T16:32:57;96044.75;;;-6.83;47.59
59829;BME280;45708;51.848;107.620;2023-04-01T16:38:19;96055.94;;;-6.98;48.60
59829;BME280;45708;51.848;107.620;2023-04-01T16:43:38;96050.44;;;-6.92;47.79
59829;BME280;45708;51.848;107.620;2023-04-01T16:54:31;96073.00;;;-6.97;48.78
59829;BME280;45708;51.848;107.620;2023-04-01T17:04:58;96047.88;;;-7.22;48.73
59829;BME280;45708;51.848;107.620;2023-04-01T17:15:46;96087.59;;;-6.97;49.24
59829;BME280;45708;51.848;107.620;2023-04-01T17:21:16;96090.06;;;-6.82;48.47
59829;BME280;45708;51.848;107.620;2023-04-01T17:31:46;96069.41;;;-7.24;49.62
59829;BME280;45708;51.848;107.620;2023-04-01T17:42:11;96062.69;;;-7.11;49.35
59829;BME280;45708;51.848;107.620;2023-04-01T17:52:31;96059.38;;;-7.13;49.90
59829;BME280;45708;51.848;107.620;2023-04-01T18:24:35;96041.81;;;-7.35;50.05
59829;BME280;45708;51.848;107.620;2023-04-01T18:35:01;96037.88;;;-7.26;48.65
59829;BME280;45708;51.848;107.620;2023-04-01T18:40:27;96039.66;;;-7.43;49.96
59829;BME280;45708;51.848;107.620;2023-04-01T18:45:33;96015.03;;;-7.61;49.39
59829;BME280;45708;51.848;107.620;2023-04-01T18:51:01;96026.09;;;-7.45;48.73
59829;BME280;45708;51.848;107.620;2023-04-01T18:56:09;96028.13;;;-7.81;49.52
59829;BME280;45708;51.848;107.620;2023-04-01T19:01:28;96015.31;;;-7.81;49.63
59829;BME280;45708;51.848;107.620;2023-04-01T19:11:56;96017.41;;;-7.88;48.65
59829;BME280;45708;51.848;107.620;2023-04-01T19:17:15;96024.84;;;-7.83;48.61
59829;BME280;45708;51.848;107.620;2023-04-01T19:27:42;96044.22;;;-7.93;48.56
59829;BME280;45708;51.848;107.620;2023-04-01T19:33:20;96038.09;;;-8.07;49.67
59829;BME280;45708;51.848;107.620;2023-04-01T19:38:30;96035.34;;;-8.04;49.09
59829;BME280;45708;51.848;107.620;2023-04-01T19:44:02;96035.28;;;-8.18;48.89
59829;BME280;45708;51.848;107.620;2023-04-01T19:59:53;95982.28;;;-8.65;50.25
59829;BME280;45708;51.848;107.620;2023-04-01T20:04:57;96027.16;;;-8.26;49.94
59829;BME280;45708;51.848;107.620;2023-04-01T20:10:22;96026.59;;;-8.31;49.87
59829;BME280;45708;51.848;107.620;2023-04-01T20:15:41;96027.44;;;-8.15;49.07
59829;BME280;45708;51.848;107.620;2023-04-01T20:21:06;96024.59;;;-8.26;48.98
59829;BME280;45708;51.848;107.620;2023-04-01T20:26:21;96023.69;;;-8.25;48.58
59829;BME280;45708;51.848;107.620;2023-04-01T20:31:27;96037.59;;;-8.29;48.61
59829;BME280;45708;51.848;107.620;2023-04-01T20:53:05;96040.22;;;-8.46;47.34
59829;BME280;45708;51.848;107.620;2023-04-01T21:08:47;96060.94;;;-8.34;46.73
59829;BME280;45708;51.848;107.620;2023-04-01T21:14:29;96070.72;;;-8.26;47.21
59829;BME280;45708;51.848;107.620;2023-04-01T21:35:52;96070.41;;;-8.51;45.80
59829;BME280;45708;51.848;107.620;2023-04-01T21:47:18;96060.56;;;-8.43;45.21
59829;BME280;45708;51.848;107.620;2023-04-01T22:09:13;96077.28;;;-8.36;44.61
59829;BME280;45708;51.848;107.620;2023-04-01T22:20:17;96082.22;;;-8.49;42.98
59829;BME280;45708;51.848;107.620;2023-04-01T22:30:51;96084.63;;;-8.30;43.40
59829;BME280;45708;51.848;107.620;2023-04-01T22:35:55;96095.63;;;-8.28;44.11
59829;BME280;45708;51.848;107.620;2023-04-01T22:51:22;96105.34;;;-8.50;42.33
59829;BME280;45708;51.848;107.620;2023-04-01T22:56:40;96111.69;;;-8.40;42.62
59829;BME280;45708;51.848;107.620;2023-04-01T23:02:06;96121.25;;;-8.28;42.54
59829;BME280;45708;51.848;107.620;2023-04-01T23:12:45;96128.09;;;-7.95;42.48
59829;BME280;45708;51.848;107.620;2023-04-01T23:18:11;96134.72;;;-7.76;42.41
59829;BME280;45708;51.848;107.620;2023-04-01T23:28:53;96139.69;;;-7.57;42.22
59829;BME280;45708;51.848;107.620;2023-04-01T23:34:18;96152.44;;;-7.40;41.24
59829;BME280;45708;51.848;107.620;2023-04-01T23:39:24;96145.13;;;-7.31;41.43
59829;BME280;45708;51.848;107.620;2023-04-01T23:44:27;96142.28;;;-7.11;41.28
59829;BME280;45708;51.848;107.620;2023-04-01T23:49:45;96138.50;;;-7.20;41.11
59829;BME280;45708;51.848;107.620;2023-04-01T23:54:58;96150.91;;;-7.12;40.55
